createdAt,value
2018-08-16T00:01:52.332Z,13.70
2018-08-16T00:04:22.422Z,13.60
2018-08-16T00:06:53.213Z,13.60
2018-08-16T00:09:23.335Z,13.40
2018-08-16T00:11:53.468Z,13.40
2018-08-16T00:14:23.580Z,13.20
2018-08-16T00:16:53.712Z,13.30
2018-08-16T00:19:23.804Z,13.30
2018-08-16T00:21:54.128Z,13.30
2018-08-16T00:24:24.254Z,13.20
2018-08-16T00:26:54.323Z,13.20
2018-08-16T00:29:24.466Z,13.30
2018-08-16T00:31:54.624Z,13.30
2018-08-16T00:34:24.713Z,13.40
2018-08-16T00:36:54.798Z,13.60
2018-08-16T00:39:24.923Z,13.40
2018-08-16T00:41:55.022Z,13.40
2018-08-16T00:44:25.141Z,13.30
2018-08-16T00:46:55.295Z,13.30
2018-08-16T00:49:25.511Z,13.10
2018-08-16T00:51:55.611Z,13.10
2018-08-16T00:54:25.672Z,13.10
2018-08-16T00:56:55.744Z,13.10
2018-08-16T00:59:25.813Z,13.10
2018-08-16T01:01:55.896Z,13.00
2018-08-16T01:04:26.030Z,12.90
2018-08-16T01:06:56.197Z,13.10
2018-08-16T01:09:26.327Z,13.10
2018-08-16T01:11:56.435Z,13.10
2018-08-16T01:14:26.521Z,13.00
2018-08-16T01:16:56.643Z,13.10
2018-08-16T01:19:26.757Z,12.90
2018-08-16T01:21:56.852Z,12.80
2018-08-16T01:24:27.041Z,12.60
2018-08-16T01:26:57.212Z,12.60
2018-08-16T01:29:27.360Z,12.70
2018-08-16T01:31:58.824Z,12.70
2018-08-16T01:34:28.928Z,12.80
2018-08-16T01:36:59.192Z,12.70
2018-08-16T01:39:29.276Z,12.80
2018-08-16T01:41:59.417Z,12.80
2018-08-16T01:44:29.532Z,12.80
2018-08-16T01:46:59.664Z,12.80
2018-08-16T01:49:32.922Z,12.80
2018-08-16T01:52:03.297Z,12.70
2018-08-16T01:54:33.777Z,12.80
2018-08-16T01:57:04.503Z,12.80
2018-08-16T01:59:34.614Z,12.50
2018-08-16T02:02:04.829Z,12.60
2018-08-16T02:04:34.904Z,12.60
2018-08-16T02:07:05.067Z,12.50
2018-08-16T02:09:35.177Z,12.50
2018-08-16T02:12:05.352Z,12.40
2018-08-16T02:14:35.464Z,12.30
2018-08-16T02:17:05.669Z,12.40
2018-08-16T02:19:35.840Z,12.30
2018-08-16T02:22:05.968Z,12.50
2018-08-16T02:24:36.096Z,12.30
2018-08-16T02:27:06.612Z,12.40
2018-08-16T02:29:36.688Z,12.30
2018-08-16T02:32:06.790Z,12.30
2018-08-16T02:34:36.877Z,12.20
2018-08-16T02:37:07.256Z,12.20
2018-08-16T02:39:37.327Z,12.10
2018-08-16T02:42:07.528Z,12.20
2018-08-16T02:44:37.628Z,12.20
2018-08-16T02:47:07.736Z,12.10
2018-08-16T02:49:37.836Z,12.20
2018-08-16T02:52:08.015Z,12.40
2018-08-16T02:54:38.124Z,12.30
2018-08-16T02:57:08.261Z,12.30
2018-08-16T02:59:38.382Z,12.50
2018-08-16T03:02:08.599Z,12.30
2018-08-16T03:04:38.722Z,12.40
2018-08-16T03:07:08.830Z,12.40
2018-08-16T03:09:38.923Z,12.30
2018-08-16T03:12:10.392Z,12.40
2018-08-16T03:14:41.560Z,12.30
2018-08-16T03:17:11.667Z,12.10
2018-08-16T03:19:41.885Z,12.00
2018-08-16T03:22:11.992Z,12.10
2018-08-16T03:24:42.071Z,11.90
2018-08-16T03:27:12.153Z,12.00
2018-08-16T03:29:42.264Z,11.90
2018-08-16T03:32:12.382Z,11.80
2018-08-16T03:34:42.508Z,11.80
2018-08-16T03:37:12.656Z,11.80
2018-08-16T03:39:42.756Z,11.80
2018-08-16T03:42:12.869Z,11.90
2018-08-16T03:44:42.989Z,12.00
2018-08-16T03:47:13.068Z,12.00
2018-08-16T03:49:43.168Z,12.40
2018-08-16T03:52:13.268Z,12.30
2018-08-16T03:54:43.354Z,12.30
2018-08-16T03:57:13.506Z,12.30
2018-08-16T03:59:43.580Z,12.40
2018-08-16T04:02:13.664Z,12.40
2018-08-16T04:04:43.740Z,12.50
2018-08-16T04:07:13.816Z,12.50
2018-08-16T04:09:43.901Z,12.50
2018-08-16T04:12:14.016Z,12.40
2018-08-16T04:14:44.128Z,12.60
2018-08-16T04:17:15.029Z,12.60
2018-08-16T04:19:45.129Z,12.70
2018-08-16T04:22:15.230Z,12.90
2018-08-16T04:24:45.304Z,13.20
2018-08-16T04:27:16.324Z,13.80
2018-08-16T05:51:32.580Z,22.60
2018-08-16T05:54:02.670Z,23.10
2018-08-16T05:56:32.803Z,23.50
2018-08-16T05:59:02.925Z,23.60
2018-08-16T06:01:33.125Z,23.80
2018-08-16T06:04:03.340Z,23.50
2018-08-16T06:06:33.522Z,23.90
2018-08-16T06:09:04.819Z,24.10
2018-08-16T06:11:34.932Z,24.20
2018-08-16T06:14:07.216Z,24.50
2018-08-16T06:16:37.596Z,24.90
2018-08-16T06:19:08.254Z,25.00
2018-08-16T06:21:38.356Z,25.00
2018-08-16T06:24:08.800Z,25.70
2018-08-16T06:26:38.824Z,25.90
2018-08-16T06:29:08.976Z,26.10
2018-08-16T06:31:39.215Z,25.10
2018-08-16T06:34:09.303Z,25.30
2018-08-16T06:36:39.456Z,25.40
2018-08-16T06:39:12.248Z,25.70
2018-08-16T06:41:42.500Z,26.20
2018-08-16T06:44:12.645Z,26.30
2018-08-16T06:46:42.793Z,26.20
2018-08-16T06:49:12.911Z,26.40
2018-08-16T06:51:43.020Z,26.30
2018-08-16T06:54:13.136Z,26.70
2018-08-16T06:56:43.322Z,26.70
2018-08-16T06:59:13.449Z,26.50
2018-08-16T07:01:43.527Z,27.00
2018-08-16T07:04:13.640Z,27.10
2018-08-16T07:06:43.756Z,26.90
2018-08-16T07:09:13.841Z,26.70
2018-08-16T07:11:44.008Z,27.20
2018-08-16T07:14:14.105Z,26.80
2018-08-16T07:16:44.287Z,27.50
2018-08-16T07:19:14.403Z,27.60
2018-08-16T07:21:44.541Z,27.60
2018-08-16T07:24:14.716Z,27.40
2018-08-16T07:26:44.759Z,27.00
2018-08-16T07:29:14.832Z,26.70
2018-08-16T07:31:44.981Z,26.40
2018-08-16T07:34:15.077Z,26.90
2018-08-16T07:36:45.213Z,27.20
2018-08-16T07:39:15.345Z,27.50
2018-08-16T07:41:45.452Z,27.00
2018-08-16T07:44:15.593Z,27.80
2018-08-16T07:46:45.721Z,27.50
2018-08-16T07:49:15.921Z,27.10
2018-08-16T07:51:46.197Z,27.60
2018-08-16T07:54:16.262Z,27.90
2018-08-16T07:56:46.403Z,27.40
2018-08-16T07:59:16.549Z,27.20
2018-08-16T08:01:46.741Z,27.60
2018-08-16T08:04:16.852Z,27.10
2018-08-16T08:06:46.992Z,27.40
2018-08-16T08:09:17.194Z,27.00
2018-08-16T08:11:47.341Z,26.90
2018-08-16T08:14:17.474Z,27.30
2018-08-16T08:16:47.630Z,27.30
2018-08-16T08:19:17.816Z,27.30
2018-08-16T08:21:47.985Z,27.70
2018-08-16T08:24:18.156Z,28.00
2018-08-16T08:26:48.257Z,28.00
2018-08-16T08:29:18.369Z,27.90
2018-08-16T08:31:48.519Z,27.80
2018-08-16T08:34:18.584Z,27.40
2018-08-16T08:37:05.480Z,27.60
2018-08-16T08:39:35.594Z,27.20
2018-08-16T08:42:05.768Z,27.30
2018-08-16T08:44:35.953Z,27.10
2018-08-16T08:47:06.164Z,27.10
2018-08-16T08:49:36.288Z,26.60
2018-08-16T08:52:06.472Z,27.00
2018-08-16T08:54:56.552Z,27.20
2018-08-16T08:57:43.604Z,27.40
2018-08-16T09:00:13.750Z,27.50
2018-08-16T09:02:43.872Z,28.00
2018-08-16T09:05:14.053Z,27.50
2018-08-16T09:07:44.176Z,27.00
2018-08-16T09:11:28.994Z,27.10
2018-08-16T09:14:15.930Z,26.90
2018-08-16T09:16:46.029Z,27.20
2018-08-16T09:19:16.132Z,27.70
2018-08-16T09:21:46.300Z,27.60
2018-08-16T09:24:16.430Z,27.80
2018-08-16T09:26:46.514Z,27.00
2018-08-16T09:30:39.765Z,27.40
2018-08-16T09:33:26.656Z,26.70
2018-08-16T09:35:56.782Z,27.10
2018-08-16T09:38:26.944Z,27.30
2018-08-16T09:40:57.045Z,27.70
2018-08-16T09:43:27.120Z,28.00
2018-08-16T09:47:12.070Z,28.20
2018-08-16T09:49:46.904Z,28.20
2018-08-16T09:52:17.577Z,28.00
2018-08-16T09:54:48.412Z,28.00
2018-08-16T09:57:18.895Z,28.10
2018-08-16T09:59:48.986Z,27.80
2018-08-16T10:02:19.217Z,28.00
2018-08-16T10:04:49.312Z,27.80
2018-08-16T10:07:19.433Z,27.50
2018-08-16T10:09:49.682Z,27.10
2018-08-16T10:12:19.789Z,26.80
2018-08-16T10:14:49.941Z,26.80
2018-08-16T10:17:20.044Z,26.60
2018-08-16T10:19:50.164Z,26.30
2018-08-16T10:22:20.309Z,26.20
2018-08-16T10:24:50.389Z,26.10
2018-08-16T10:27:20.472Z,26.10
2018-08-16T10:29:50.560Z,26.30
2018-08-16T10:32:20.676Z,26.50
2018-08-16T10:34:50.780Z,26.50
2018-08-16T10:37:20.886Z,26.60
2018-08-16T10:39:51.020Z,26.60
2018-08-16T10:42:21.131Z,26.70
2018-08-16T10:44:51.285Z,26.70
2018-08-16T10:47:21.412Z,26.60
2018-08-16T10:49:51.568Z,26.80
2018-08-16T10:52:21.648Z,26.90
2018-08-16T10:54:51.797Z,26.90
2018-08-16T10:57:21.907Z,27.10
2018-08-16T10:59:52.053Z,26.90
2018-08-16T11:02:22.185Z,27.00
2018-08-16T11:04:52.325Z,26.90
2018-08-16T11:07:22.498Z,26.70
2018-08-16T11:09:52.586Z,26.40
2018-08-16T11:12:22.684Z,26.20
2018-08-16T11:14:52.856Z,26.30
2018-08-16T11:17:22.964Z,26.10
2018-08-16T11:19:53.045Z,26.10
2018-08-16T11:22:23.156Z,26.00
2018-08-16T11:24:53.244Z,26.20
2018-08-16T11:27:23.340Z,26.10
2018-08-16T11:29:53.454Z,26.20
2018-08-16T11:32:23.603Z,26.00
2018-08-16T11:34:53.728Z,26.00
2018-08-16T11:37:23.808Z,26.00
2018-08-16T11:39:53.890Z,26.00
2018-08-16T11:42:24.000Z,26.00
2018-08-16T11:44:54.080Z,26.00
2018-08-16T11:47:24.193Z,26.00
2018-08-16T11:49:54.332Z,26.10
2018-08-16T11:52:24.420Z,25.90
2018-08-16T11:54:54.534Z,26.10
2018-08-16T11:57:24.672Z,26.50
2018-08-16T11:59:54.952Z,26.70
2018-08-16T12:02:25.112Z,26.50
2018-08-16T12:04:55.186Z,26.50
2018-08-16T12:07:25.284Z,26.10
2018-08-16T12:09:55.396Z,26.30
2018-08-16T12:12:32.150Z,26.20
2018-08-16T12:15:02.306Z,26.20
2018-08-16T12:17:32.370Z,26.10
2018-08-16T12:20:02.466Z,26.00
2018-08-16T12:22:32.564Z,25.90
2018-08-16T12:25:02.657Z,25.60
2018-08-16T12:27:32.756Z,25.60
2018-08-16T12:30:03.168Z,25.80
2018-08-16T12:32:33.297Z,25.90
2018-08-16T12:35:03.516Z,25.80
2018-08-16T12:37:33.660Z,26.00
2018-08-16T12:40:03.812Z,25.90
2018-08-16T12:42:33.948Z,25.90
2018-08-16T12:45:04.470Z,26.10
2018-08-16T12:47:34.660Z,26.10
2018-08-16T12:50:05.813Z,26.20
2018-08-16T12:52:36.020Z,26.20
2018-08-16T12:55:06.348Z,26.30
2018-08-16T12:57:36.460Z,26.30
2018-08-16T13:00:11.248Z,26.30
2018-08-16T13:02:41.361Z,26.40
2018-08-16T13:05:11.513Z,26.30
2018-08-16T13:07:41.628Z,26.20
2018-08-16T13:10:12.679Z,26.20
2018-08-16T13:12:42.812Z,26.10
2018-08-16T13:15:12.957Z,25.90
2018-08-16T13:17:43.140Z,25.90
2018-08-16T13:20:13.272Z,25.90
2018-08-16T13:22:43.589Z,26.00
2018-08-16T13:25:13.746Z,26.00
2018-08-16T13:27:43.870Z,25.90
2018-08-16T13:30:13.953Z,25.70
2018-08-16T13:32:44.052Z,25.80
2018-08-16T13:35:14.177Z,25.70
2018-08-16T13:37:44.290Z,25.80
2018-08-16T13:40:14.405Z,25.80
2018-08-16T13:42:44.548Z,25.70
2018-08-16T13:45:14.696Z,25.80
2018-08-16T13:47:44.859Z,25.80
2018-08-16T13:50:15.043Z,25.80
2018-08-16T13:52:45.170Z,25.70
2018-08-16T13:55:15.280Z,25.80
2018-08-16T13:57:45.420Z,25.70
2018-08-16T14:00:15.545Z,25.70
2018-08-16T14:02:45.632Z,25.60
2018-08-16T14:05:15.736Z,25.60
2018-08-16T14:07:45.936Z,25.50
2018-08-16T14:10:16.077Z,25.50
2018-08-16T14:12:46.218Z,25.50
2018-08-16T14:15:16.328Z,25.30
2018-08-16T14:17:46.416Z,25.40
2018-08-16T14:20:16.544Z,25.50
2018-08-16T14:22:46.631Z,25.40
2018-08-16T14:25:16.800Z,25.40
2018-08-16T14:27:46.956Z,25.30
2018-08-16T14:30:17.057Z,25.30
2018-08-16T14:32:47.146Z,25.30
2018-08-16T14:35:17.276Z,25.20
2018-08-16T14:37:47.387Z,25.30
2018-08-16T14:40:17.577Z,25.30
2018-08-16T14:42:47.684Z,25.30
2018-08-16T14:45:17.786Z,25.30
2018-08-16T14:47:47.901Z,25.20
2018-08-16T14:50:18.031Z,25.10
2018-08-16T14:52:48.180Z,25.10
2018-08-16T14:55:18.325Z,25.20
2018-08-16T14:57:48.421Z,25.30
2018-08-16T15:00:18.521Z,25.10
2018-08-16T15:02:48.616Z,25.30
2018-08-16T15:05:18.708Z,25.20
2018-08-16T15:07:48.797Z,25.00
2018-08-16T15:10:18.921Z,25.10
2018-08-16T15:12:49.021Z,25.10
2018-08-16T15:15:19.153Z,25.00
2018-08-16T15:17:49.284Z,25.00
2018-08-16T15:20:19.388Z,25.00
2018-08-16T15:22:49.501Z,24.90
2018-08-16T15:25:19.685Z,24.90
2018-08-16T15:27:49.820Z,25.00
2018-08-16T15:30:19.948Z,24.90
2018-08-16T15:32:50.037Z,24.90
2018-08-16T15:35:20.170Z,24.80
2018-08-16T15:37:50.282Z,24.80
2018-08-16T15:40:20.493Z,24.80
2018-08-16T15:42:50.611Z,24.80
2018-08-16T15:45:20.745Z,24.70
2018-08-16T15:47:50.912Z,24.70
2018-08-16T15:50:21.060Z,24.70
2018-08-16T15:52:51.953Z,24.60
2018-08-16T15:55:22.212Z,24.50
2018-08-16T15:57:52.798Z,24.50
2018-08-16T16:00:29.668Z,24.50
2018-08-16T16:02:59.772Z,24.50
2018-08-16T16:05:31.151Z,24.50
2018-08-16T16:08:01.218Z,24.40
2018-08-16T16:10:31.352Z,24.30
2018-08-16T16:13:01.460Z,24.40
2018-08-16T16:15:31.564Z,24.30
2018-08-16T16:18:01.661Z,24.20
2018-08-16T16:20:31.768Z,24.20
2018-08-16T16:23:01.954Z,24.20
2018-08-16T16:25:32.047Z,24.10
2018-08-16T16:28:02.164Z,24.00
2018-08-16T16:30:32.608Z,24.10
2018-08-16T16:33:02.732Z,24.00
2018-08-16T16:35:32.828Z,24.00
2018-08-16T16:38:02.996Z,23.90
2018-08-16T16:40:33.100Z,23.90
2018-08-16T16:43:03.253Z,23.90
2018-08-16T16:45:33.575Z,23.80
2018-08-16T16:48:03.744Z,23.80
2018-08-16T16:50:34.108Z,23.70
2018-08-16T16:53:04.380Z,23.60
2018-08-16T16:55:34.456Z,23.60
2018-08-16T16:58:07.256Z,23.50
2018-08-16T17:00:37.492Z,23.40
2018-08-16T17:03:07.628Z,23.30
2018-08-16T17:05:37.732Z,23.30
2018-08-16T17:08:07.967Z,23.20
2018-08-16T17:10:38.133Z,23.10
2018-08-16T17:13:08.871Z,22.90
2018-08-16T17:15:39.246Z,22.90
2018-08-16T17:18:09.467Z,22.70
2018-08-16T17:20:39.572Z,22.70
2018-08-16T17:23:09.674Z,22.50
2018-08-16T17:25:39.808Z,22.40
2018-08-16T17:28:11.544Z,22.20
2018-08-16T17:30:41.880Z,22.00
2018-08-16T17:33:12.856Z,21.80
2018-08-16T17:35:43.304Z,21.60
2018-08-16T17:38:13.597Z,21.40
2018-08-16T17:40:43.786Z,21.20
2018-08-16T17:43:13.883Z,21.00
2018-08-16T17:45:43.971Z,20.80
2018-08-16T17:48:14.126Z,20.60
2018-08-16T17:50:44.233Z,20.40
2018-08-16T17:53:14.316Z,20.30
2018-08-16T17:55:44.572Z,20.10
2018-08-16T17:58:14.889Z,20.00
2018-08-16T18:00:45.124Z,19.80
2018-08-16T18:03:15.216Z,19.70
2018-08-16T18:05:45.887Z,19.60
2018-08-16T18:08:16.055Z,19.50
2018-08-16T18:10:46.184Z,19.40
2018-08-16T18:13:16.963Z,19.30
2018-08-16T18:15:47.060Z,19.20
2018-08-16T18:18:17.498Z,19.10
2018-08-16T18:20:47.705Z,19.00
2018-08-16T18:23:18.796Z,19.00
2018-08-16T18:25:49.942Z,18.90
2018-08-16T18:28:20.447Z,18.90
2018-08-16T18:30:51.035Z,18.80
2018-08-16T18:33:22.616Z,18.70
2018-08-16T18:35:53.286Z,18.60
2018-08-16T18:38:24.503Z,18.50
2018-08-16T18:40:54.990Z,18.40
2018-08-16T18:43:25.724Z,18.30
2018-08-16T18:45:56.190Z,18.20
2018-08-16T18:48:26.544Z,18.20
2018-08-16T18:50:56.856Z,18.20
2018-08-16T18:53:27.233Z,18.10
2018-08-16T18:55:58.286Z,18.10
2018-08-16T18:58:28.687Z,18.20
2018-08-16T19:00:59.512Z,18.20
2018-08-16T19:03:29.888Z,18.20
2018-08-16T19:06:00.156Z,18.10
2018-08-16T19:08:30.276Z,18.10
2018-08-16T19:11:00.424Z,17.80
2018-08-16T19:13:30.500Z,17.80
2018-08-16T19:16:00.584Z,17.90
2018-08-16T19:18:30.808Z,17.70
2018-08-16T19:21:01.139Z,17.70
2018-08-16T19:23:31.703Z,17.60
2018-08-16T19:26:01.920Z,17.40
2018-08-16T19:28:32.222Z,17.30
2018-08-16T19:31:02.391Z,17.20
2018-08-16T19:33:32.612Z,17.10
2018-08-16T19:36:02.817Z,17.00
2018-08-16T19:38:33.247Z,16.90
2018-08-16T19:41:03.469Z,16.80
2018-08-16T19:43:33.753Z,16.90
2018-08-16T19:46:03.957Z,16.80
2018-08-16T19:48:34.198Z,16.90
2018-08-16T19:51:04.342Z,16.80
2018-08-16T19:53:34.824Z,16.70
2018-08-16T19:56:05.258Z,16.60
2018-08-16T19:58:36.368Z,16.60
2018-08-16T20:01:06.699Z,16.60
2018-08-16T20:03:36.749Z,16.60
2018-08-16T20:06:07.203Z,16.60
2018-08-16T20:08:37.321Z,16.50
2018-08-16T20:11:07.976Z,16.40
2018-08-16T20:13:38.152Z,16.30
2018-08-16T20:16:08.350Z,16.30
2018-08-16T20:18:38.456Z,16.10
2018-08-16T20:21:08.549Z,16.10
2018-08-16T20:23:38.661Z,16.00
2018-08-16T20:26:08.944Z,15.90
2018-08-16T20:28:39.041Z,15.90
2018-08-16T20:31:09.158Z,15.80
2018-08-16T20:33:45.629Z,15.90
2018-08-16T20:36:15.864Z,15.80
2018-08-16T20:38:46.004Z,15.80
2018-08-16T20:41:16.253Z,15.80
2018-08-16T20:44:04.873Z,15.80
2018-08-16T21:01:35.972Z,15.30
2018-08-16T21:04:06.402Z,15.20
2018-08-16T21:06:37.513Z,15.10
2018-08-16T21:09:09.796Z,15.10
2018-08-16T21:11:40.185Z,15.20
2018-08-16T21:14:14.472Z,15.20
2018-08-16T21:16:44.997Z,15.20
2018-08-16T21:19:17.705Z,15.10
2018-08-16T21:21:55.389Z,15.20
2018-08-16T21:24:25.805Z,15.20
2018-08-16T21:26:56.090Z,15.10
2018-08-16T21:29:27.213Z,15.00
2018-08-16T21:31:58.294Z,14.90
2018-08-16T21:34:28.449Z,14.90
2018-08-16T21:36:58.939Z,14.80
2018-08-16T22:01:06.617Z,14.50
2018-08-16T22:03:36.748Z,14.50
2018-08-16T22:06:08.430Z,14.50
2018-08-16T22:08:49.249Z,14.60
2018-08-16T22:11:20.059Z,14.50
2018-08-16T22:13:50.208Z,14.50
2018-08-16T22:16:20.413Z,14.30
2018-08-16T22:18:50.660Z,14.30
2018-08-16T22:21:49.394Z,14.30
2018-08-16T22:24:21.464Z,14.30
2018-08-16T22:26:51.561Z,14.20
2018-08-16T22:29:21.732Z,14.20
2018-08-16T22:31:51.878Z,14.30
2018-08-16T22:34:22.013Z,14.20
2018-08-16T22:36:52.153Z,14.20
2018-08-16T22:39:22.408Z,14.10
2018-08-16T22:41:52.524Z,14.10
2018-08-16T22:44:22.611Z,14.00
2018-08-16T22:46:52.756Z,14.10
2018-08-16T22:49:22.868Z,14.20
2018-08-16T22:51:53.067Z,14.00
2018-08-16T22:54:23.152Z,14.20
2018-08-16T22:56:53.269Z,14.10
2018-08-16T22:59:23.437Z,14.10
2018-08-16T23:01:53.548Z,14.00
2018-08-16T23:04:23.893Z,14.00
2018-08-16T23:06:54.058Z,14.00
2018-08-16T23:09:29.198Z,13.80
2018-08-16T23:12:00.117Z,13.70
2018-08-16T23:14:30.318Z,13.80
2018-08-16T23:17:02.477Z,13.90
2018-08-16T23:19:35.677Z,13.90
2018-08-16T23:25:17.279Z,13.70
2018-08-16T23:27:47.403Z,13.80
2018-08-16T23:30:17.638Z,13.70
2018-08-16T23:32:47.785Z,13.60
2018-08-16T23:35:17.993Z,13.60
2018-08-16T23:37:48.396Z,13.80
2018-08-16T23:40:18.512Z,13.60
2018-08-16T23:42:48.689Z,13.60
2018-08-16T23:45:18.893Z,13.70
2018-08-16T23:48:06.317Z,13.60
2018-08-16T23:50:36.468Z,13.60
2018-08-16T23:53:06.660Z,13.50
2018-08-16T23:55:37.303Z,13.50
2018-08-16T23:58:07.590Z,13.50
